Time;durP1;ratioP1;P1;durP2;ratioP2;P2;SDS_P1;SDS_P2;PMS_P1;PMS_P2;Temp;Humidity;BMP_temperature;BMP_pressure;BME280_temperature;BME280_humidity;BME280_pressure;Samples;Min_cycle;Max_cycle;Signal;HPM_P1;HPM_P2
2021/07/16 00:01:32;;;;;;;;;18.50;14.25;;;;;19.60;62.88;101791.88;5060420;28;46734;-66
2021/07/16 00:03:58;;;;;;;;;16.50;15.25;;;;;19.59;63.01;101798.06;5061112;28;45513;-66
2021/07/16 00:06:23;;;;;;;;;16.75;16.25;;;;;19.56;63.18;101787.69;5059899;28;46463;-66
2021/07/16 00:08:48;;;;;;;;;15.25;15.25;;;;;19.50;63.06;101780.03;5064596;28;45299;-66
2021/07/16 00:11:14;;;;;;;;;14.50;12.00;;;;;19.52;63.05;101784.31;5046080;28;45415;-66
2021/07/16 00:13:39;;;;;;;;;11.75;11.50;;;;;19.51;63.46;101785.25;5061602;28;45433;-66
2021/07/16 00:16:05;;;;;;;;;17.00;15.00;;;;;19.47;63.93;101778.41;5061175;28;45503;-66
2021/07/16 00:18:31;;;;;;;;;10.75;9.50;;;;;19.47;63.71;101781.03;5061385;28;45430;-66
2021/07/16 00:20:57;;;;;;;;;15.75;14.75;;;;;19.47;63.52;101775.78;5061471;28;45359;-66
2021/07/16 00:23:23;;;;;;;;;14.50;12.75;;;;;19.50;64.03;101777.41;5061292;28;45245;-66
2021/07/16 00:25:49;;;;;;;;;9.75;8.25;;;;;19.52;63.69;101783.47;5060885;28;46113;-66
2021/07/16 00:28:14;;;;;;;;;18.75;14.75;;;;;19.52;63.35;101780.81;5062706;28;45175;-65
2021/07/16 00:30:39;;;;;;;;;16.25;13.00;;;;;19.55;63.87;101783.34;5061421;28;45304;-66
2021/07/16 00:33:06;;;;;;;;;14.75;10.50;;;;;19.53;63.65;101775.47;5061488;28;45363;-67
2021/07/16 00:35:31;;;;;;;;;15.50;13.75;;;;;19.52;63.97;101773.75;5060876;28;45362;-67
2021/07/16 00:37:56;;;;;;;;;12.25;11.25;;;;;19.48;63.53;101771.34;5061180;28;45238;-67
2021/07/16 00:40:22;;;;;;;;;14.25;13.25;;;;;19.39;64.25;101778.75;5058856;28;45608;-67
2021/07/16 00:42:48;;;;;;;;;13.25;12.50;;;;;19.34;64.16;101782.56;5049954;28;45213;-68
2021/07/16 00:45:14;;;;;;;;;18.00;13.50;;;;;19.34;63.99;101779.91;5058725;28;46000;-67
2021/07/16 00:47:41;;;;;;;;;12.00;11.50;;;;;19.35;64.22;101773.72;5032468;28;45955;-67
2021/07/16 00:50:09;;;;;;;;;16.00;12.75;;;;;19.39;64.56;101775.28;5061125;28;45237;-68
2021/07/16 00:52:35;;;;;;;;;12.75;11.75;;;;;19.42;64.34;101785.66;5060825;28;45395;-68
2021/07/16 00:55:01;;;;;;;;;13.75;12.25;;;;;19.36;64.24;101784.19;5060476;28;46240;-67
2021/07/16 00:57:27;;;;;;;;;13.00;11.75;;;;;19.30;64.66;101786.25;5042620;28;45248;-67
2021/07/16 00:59:52;;;;;;;;;16.25;13.25;;;;;19.28;64.89;101788.13;5060786;28;45227;-68
2021/07/16 01:02:18;;;;;;;;;10.25;7.25;;;;;19.25;64.81;101788.28;5060376;28;45524;-68
2021/07/16 01:04:43;;;;;;;;;14.00;12.25;;;;;19.26;65.38;101797.88;5058867;28;45471;-67
2021/07/16 01:07:08;;;;;;;;;16.50;12.75;;;;;19.19;65.72;101783.25;5049163;28;45421;-67
2021/07/16 01:09:34;;;;;;;;;11.25;9.50;;;;;19.13;65.47;101784.41;5068682;28;45329;-67
2021/07/16 01:12:01;;;;;;;;;15.25;10.75;;;;;19.12;66.03;101788.81;5060503;28;45297;-67
2021/07/16 01:14:27;;;;;;;;;9.50;9.50;;;;;19.11;65.86;101795.03;5060548;28;46039;-66
2021/07/16 01:16:52;;;;;;;;;12.50;11.25;;;;;19.05;66.19;101784.78;5060788;28;45565;-66
2021/07/16 01:19:30;;;;;;;;;10.50;10.25;;;;;19.14;65.87;101794.88;5060579;28;45399;-66
2021/07/16 01:22:00;;;;;;;;;13.50;12.00;;;;;19.17;65.90;101804.41;5060560;28;45207;-66
2021/07/16 01:24:26;;;;;;;;;14.00;13.75;;;;;19.13;66.24;101793.16;5060406;28;46369;-66
2021/07/16 01:26:51;;;;;;;;;15.00;13.50;;;;;19.11;66.47;101786.25;5060081;28;45373;-67
2021/07/16 01:29:18;;;;;;;;;13.50;10.50;;;;;19.11;65.93;101789.75;5054498;28;45331;-67
2021/07/16 01:31:44;;;;;;;;;12.00;12.00;;;;;19.10;66.22;101798.59;5040587;28;45758;-67
2021/07/16 01:34:10;;;;;;;;;13.00;12.50;;;;;19.06;66.38;101791.75;5040294;28;47304;-68
2021/07/16 01:36:35;;;;;;;;;14.25;12.50;;;;;19.09;66.27;101793.38;5060147;28;45259;-69
2021/07/16 01:39:00;;;;;;;;;17.50;15.25;;;;;19.12;66.67;101803.78;5060085;28;45299;-68
2021/07/16 01:41:26;;;;;;;;;13.75;12.75;;;;;19.11;66.53;101787.13;5060195;28;45399;-68
2021/07/16 01:43:51;;;;;;;;;14.50;14.50;;;;;19.14;66.47;101794.88;5059834;28;45240;-68
2021/07/16 01:46:16;;;;;;;;;11.25;11.25;;;;;19.14;66.74;101794.03;5046714;28;45681;-68
2021/07/16 01:48:42;;;;;;;;;10.50;9.00;;;;;19.14;66.43;101794.88;5053938;28;45236;-66
2021/07/16 01:51:07;;;;;;;;;14.00;12.00;;;;;19.12;66.48;101799.38;5032560;28;45230;-67
2021/07/16 01:53:34;;;;;;;;;12.00;11.00;;;;;19.11;66.70;101789.75;5059721;28;46264;-67
2021/07/16 01:56:00;;;;;;;;;13.50;11.75;;;;;19.13;66.39;101790.53;5059845;28;45594;-67
2021/07/16 01:58:25;;;;;;;;;15.50;13.00;;;;;19.12;66.80;101802.00;5059847;28;45323;-67
2021/07/16 02:00:50;;;;;;;;;18.50;13.75;;;;;19.10;66.88;101781.94;5059941;28;45464;-67
2021/07/16 02:03:17;;;;;;;;;13.00;13.00;;;;;19.11;66.72;101795.03;5059368;28;46138;-67
2021/07/16 02:05:45;;;;;;;;;13.00;13.00;;;;;19.08;66.85;101787.25;5060069;28;45300;-67
2021/07/16 02:08:16;;;;;;;;;12.25;10.00;;;;;19.07;67.37;101790.84;5059713;28;45356;-67
2021/07/16 02:10:43;;;;;;;;;13.00;13.00;;;;;19.07;67.18;101792.59;5067637;28;45446;-67
2021/07/16 02:13:09;;;;;;;;;12.50;10.00;;;;;19.09;67.07;101791.59;5059596;28;45283;-67
2021/07/16 02:15:38;;;;;;;;;15.50;11.50;;;;;19.04;67.05;101779.59;5059909;28;45260;-66
2021/07/16 02:18:04;;;;;;;;;16.00;11.75;;;;;19.07;67.46;101777.66;5059773;28;45257;-68
2021/07/16 02:20:39;;;;;;;;;11.50;10.75;;;;;19.13;66.97;101782.63;5059754;28;45574;-68
2021/07/16 02:23:10;;;;;;;;;12.00;9.50;;;;;19.21;67.00;101779.63;5039545;28;45311;-69
2021/07/16 02:25:36;;;;;;;;;12.00;9.75;;;;;19.24;66.61;101790.06;5053964;28;45276;-69
2021/07/16 02:28:06;;;;;;;;;10.25;9.75;;;;;19.24;66.56;101791.84;5060268;28;45473;-69
2021/07/16 02:30:32;;;;;;;;;13.50;12.00;;;;;19.15;67.06;101783.41;5041301;28;45651;-69
2021/07/16 02:32:59;;;;;;;;;13.25;10.50;;;;;19.12;66.75;101788.81;5059688;28;45281;-70
2021/07/16 02:35:25;;;;;;;;;13.25;10.50;;;;;19.08;67.48;101782.00;5059318;28;45529;-70
2021/07/16 02:37:51;;;;;;;;;14.25;12.00;;;;;19.05;67.25;101774.25;5059783;28;45272;-71
2021/07/16 02:40:18;;;;;;;;;11.00;7.50;;;;;19.07;67.71;101776.81;5059375;28;45321;-71
2021/07/16 02:42:44;;;;;;;;;12.75;11.25;;;;;19.08;67.52;101783.78;5059327;28;45591;-67
2021/07/16 02:45:14;;;;;;;;;12.00;9.75;;;;;19.08;67.64;101779.38;5059223;28;45387;-67
2021/07/16 02:47:40;;;;;;;;;9.25;8.50;;;;;19.06;67.81;101785.63;5059615;28;45354;-67
2021/07/16 02:50:14;;;;;;;;;12.25;11.75;;;;;19.06;67.98;101786.50;5059343;28;45464;-67
2021/07/16 02:52:41;;;;;;;;;12.50;10.00;;;;;19.05;68.12;101787.41;5059122;28;46228;-67
2021/07/16 02:55:08;;;;;;;;;13.75;12.25;;;;;19.06;67.93;101786.50;5059246;28;45641;-67
2021/07/16 02:57:34;;;;;;;;;8.75;8.50;;;;;19.04;68.56;101790.97;5059179;28;45312;-67
2021/07/16 02:59:59;;;;;;;;;10.25;10.25;;;;;19.04;68.55;101780.44;5054199;28;45334;-67
2021/07/16 03:02:29;;;;;;;;;10.75;9.75;;;;;19.04;68.92;101798.88;5049609;28;45425;-67
2021/07/16 03:04:55;;;;;;;;;8.25;7.25;;;;;19.02;68.86;101794.56;5062600;28;45315;-67
2021/07/16 03:07:20;;;;;;;;;10.75;10.50;;;;;18.99;68.79;101786.81;5062743;28;45363;-67
2021/07/16 03:09:46;;;;;;;;;10.25;9.00;;;;;19.05;68.67;101794.47;5070542;28;45419;-67
2021/07/16 03:12:12;;;;;;;;;8.50;7.00;;;;;19.05;69.05;101789.19;5062298;28;45331;-66
2021/07/16 03:14:37;;;;;;;;;9.25;8.00;;;;;19.04;68.88;101782.22;5062401;28;45190;-67
2021/07/16 03:17:03;;;;;;;;;11.25;10.75;;;;;19.02;68.84;101784.94;5062731;28;45327;-67
2021/07/16 03:19:28;;;;;;;;;12.00;9.25;;;;;18.95;69.43;101782.63;5062283;28;45387;-69
2021/07/16 03:21:53;;;;;;;;;14.00;9.25;;;;;18.96;69.79;101784.34;5062277;28;46094;-68
2021/07/16 03:24:19;;;;;;;;;11.50;10.50;;;;;18.99;69.33;101792.94;5049120;28;45303;-67
2021/07/16 03:26:45;;;;;;;;;10.00;9.00;;;;;18.97;69.74;101788.69;5044054;28;45453;-68
2021/07/16 03:29:10;;;;;;;;;13.00;12.25;;;;;18.96;69.47;101795.72;5063501;28;45513;-70
2021/07/16 03:31:36;;;;;;;;;12.75;10.75;;;;;18.95;70.03;101799.28;5044178;28;47093;-68
2021/07/16 03:34:01;;;;;;;;;11.75;10.75;;;;;18.98;69.81;101788.59;5062250;28;45545;-67
2021/07/16 03:36:27;;;;;;;;;15.50;12.75;;;;;19.01;69.81;101792.88;5062115;28;46647;-67
2021/07/16 03:38:55;;;;;;;;;12.75;10.50;;;;;18.96;69.50;101793.09;5061899;28;45303;-69
2021/07/16 03:41:20;;;;;;;;;11.50;9.25;;;;;18.96;69.88;101794.88;5061986;28;45304;-68
2021/07/16 03:43:46;;;;;;;;;11.25;11.25;;;;;18.94;70.16;101796.72;5061918;28;45421;-68
2021/07/16 03:46:14;;;;;;;;;11.50;10.75;;;;;18.93;69.82;101797.66;5044102;28;45488;-69
2021/07/16 03:48:40;;;;;;;;;10.75;9.75;;;;;18.95;69.73;101799.28;5043812;28;45439;-69
2021/07/16 03:51:05;;;;;;;;;7.50;7.50;;;;;18.98;70.07;101798.28;5043782;28;45328;-68
2021/07/16 03:53:31;;;;;;;;;9.50;9.25;;;;;19.00;69.83;101796.44;5061617;28;45296;-69
2021/07/16 03:55:57;;;;;;;;;9.00;6.50;;;;;18.99;69.72;101800.84;5060602;28;45327;-69
2021/07/16 03:58:22;;;;;;;;;7.00;7.00;;;;;18.98;69.98;101804.41;5043473;28;45296;-69
2021/07/16 04:00:47;;;;;;;;;13.00;10.00;;;;;19.01;69.96;101803.41;5050182;28;46511;-68
2021/07/16 04:03:15;;;;;;;;;10.00;9.00;;;;;19.04;69.86;101804.16;5059726;28;45280;-67
2021/07/16 04:05:41;;;;;;;;;10.50;8.25;;;;;19.04;70.26;101795.38;5040653;28;45370;-67
2021/07/16 04:08:09;;;;;;;;;6.00;5.75;;;;;19.02;69.96;101791.94;5058106;28;45280;-67
2021/07/16 04:10:37;;;;;;;;;11.25;10.00;;;;;19.00;70.28;101793.78;5069236;28;46194;-67
2021/07/16 04:13:09;;;;;;;;;12.25;10.00;;;;;19.00;70.00;101801.69;5061493;28;45342;-67
2021/07/16 04:15:35;;;;;;;;;7.75;7.75;;;;;18.95;70.57;101799.28;5061155;28;45399;-67
2021/07/16 04:18:02;;;;;;;;;9.25;8.00;;;;;18.92;70.77;101795.94;5056952;28;45505;-67
2021/07/16 04:20:29;;;;;;;;;9.50;8.00;;;;;18.89;70.62;101793.44;5052883;28;45438;-67
2021/07/16 04:22:55;;;;;;;;;10.00;7.25;;;;;18.83;71.38;101789.31;5061200;28;45237;-67
2021/07/16 04:25:21;;;;;;;;;9.00;9.00;;;;;18.77;71.07;101793.06;5061532;28;45302;-66
2021/07/16 04:27:50;;;;;;;;;6.75;5.75;;;;;18.80;71.38;101807.88;5051169;28;45221;-66
2021/07/16 04:30:17;;;;;;;;;8.25;8.00;;;;;18.75;71.86;101802.81;5061353;28;45384;-66
2021/07/16 04:32:43;;;;;;;;;14.00;10.00;;;;;18.69;71.73;101800.47;5060964;28;45682;-67
2021/07/16 04:35:09;;;;;;;;;12.00;10.75;;;;;18.66;71.98;101805.88;5060925;28;45304;-66
2021/07/16 04:37:35;;;;;;;;;6.50;5.00;;;;;18.59;72.40;101795.63;5060722;28;45228;-66
2021/07/16 04:40:08;;;;;;;;;12.00;10.25;;;;;18.56;72.21;101804.50;5060936;28;45378;-67
2021/07/16 04:42:34;;;;;;;;;11.75;9.50;;;;;18.59;72.42;101811.41;5060682;28;45584;-68
2021/07/16 04:45:06;;;;;;;;;8.25;6.50;;;;;18.58;72.32;101815.84;5058360;28;45909;-69
2021/07/16 04:47:31;;;;;;;;;10.00;8.00;;;;;18.54;72.34;101819.53;5028433;28;45400;-67
2021/07/16 04:49:56;;;;;;;;;8.50;6.00;;;;;18.52;72.82;101806.44;5049086;28;47548;-66
2021/07/16 04:52:23;;;;;;;;;13.75;10.00;;;;;18.56;72.45;101807.16;5058404;28;45401;-65
2021/07/16 04:54:48;;;;;;;;;7.75;7.75;;;;;18.59;72.36;101812.28;5058503;28;45344;-66
2021/07/16 04:57:13;;;;;;;;;9.00;8.50;;;;;18.63;72.75;101819.19;5058256;28;45345;-70
2021/07/16 04:59:39;;;;;;;;;9.25;8.75;;;;;18.58;72.73;101815.84;5051687;28;47536;-69
2021/07/16 05:02:05;;;;;;;;;11.50;7.00;;;;;18.59;72.48;101817.53;5060311;28;45207;-68
2021/07/16 05:04:32;;;;;;;;;12.50;10.00;;;;;18.65;72.51;101811.22;5060877;28;45474;-68
2021/07/16 05:06:57;;;;;;;;;9.75;9.25;;;;;18.74;72.56;101818.69;5060458;28;45571;-70
2021/07/16 05:09:26;;;;;;;;;9.50;8.50;;;;;18.75;71.88;101817.75;5068128;28;45316;-70
2021/07/16 05:11:52;;;;;;;;;9.00;9.00;;;;;18.76;72.40;101814.19;5060467;28;45256;-69
2021/07/16 05:14:18;;;;;;;;;10.50;10.50;;;;;18.77;72.24;101808.88;5060558;28;45265;-70
2021/07/16 05:16:43;;;;;;;;;8.50;8.00;;;;;18.84;72.07;101814.72;5060561;28;45305;-70
2021/07/16 05:19:09;;;;;;;;;9.25;8.75;;;;;18.86;71.64;101812.88;5059476;28;46239;-70
2021/07/16 05:21:34;;;;;;;;;12.25;10.25;;;;;18.91;71.76;101826.69;5048004;28;45437;-70
2021/07/16 05:24:01;;;;;;;;;9.75;8.75;;;;;18.91;71.68;101823.22;5047077;28;45307;-70
2021/07/16 05:26:27;;;;;;;;;9.50;9.25;;;;;18.93;71.51;101822.22;5059004;28;45227;-70
2021/07/16 05:28:53;;;;;;;;;10.00;9.00;;;;;18.96;71.41;101835.25;5061158;28;45522;-70
2021/07/16 05:31:19;;;;;;;;;11.75;9.00;;;;;19.01;71.32;101825.34;5060245;28;45619;-70
2021/07/16 05:33:45;;;;;;;;;8.75;8.75;;;;;19.05;71.44;101821.66;5059963;28;45366;-70
2021/07/16 05:36:12;;;;;;;;;11.50;9.00;;;;;19.10;71.45;101827.56;5059800;28;45293;-70
2021/07/16 05:38:37;;;;;;;;;11.25;7.75;;;;;19.06;70.83;101833.91;5059748;28;46165;-70
2021/07/16 05:41:07;;;;;;;;;11.75;10.25;;;;;19.07;71.37;101838.25;5059856;28;45268;-70
2021/07/16 05:43:33;;;;;;;;;11.00;7.75;;;;;19.08;71.26;101831.22;5060029;28;45292;-70
2021/07/16 05:45:59;;;;;;;;;9.75;9.00;;;;;19.12;71.00;101824.88;5060209;28;45344;-70
2021/07/16 05:48:25;;;;;;;;;9.25;7.25;;;;;19.13;71.41;101824.78;5059784;28;45260;-70
2021/07/16 05:50:51;;;;;;;;;10.50;7.75;;;;;19.22;71.20;101831.44;5060049;28;45407;-67
2021/07/16 05:53:17;;;;;;;;;11.75;10.00;;;;;19.25;70.87;101839.19;5041195;28;45328;-69
2021/07/16 05:55:43;;;;;;;;;8.00;7.00;;;;;19.21;70.64;101832.34;5059724;28;45311;-69
2021/07/16 05:58:08;;;;;;;;;10.00;8.00;;;;;19.19;71.09;101850.00;5059450;28;46152;-69
2021/07/16 06:00:35;;;;;;;;;8.50;6.75;;;;;19.24;70.41;101853.31;5050139;28;45200;-69
2021/07/16 06:03:01;;;;;;;;;6.25;6.00;;;;;19.21;70.43;101861.31;5056281;28;45244;-69
2021/07/16 06:05:26;;;;;;;;;8.00;7.00;;;;;19.24;70.05;101861.22;5059893;28;45210;-69
2021/07/16 06:07:51;;;;;;;;;7.25;6.50;;;;;19.31;69.93;101857.34;5059432;28;45553;-67
2021/07/16 06:10:17;;;;;;;;;6.25;5.75;;;;;19.35;70.01;101860.69;5067395;28;45433;-67
2021/07/16 06:12:43;;;;;;;;;6.00;6.00;;;;;19.39;70.62;101859.63;5059334;28;45284;-67
2021/07/16 06:15:09;;;;;;;;;10.00;7.00;;;;;19.40;70.06;101861.34;5059855;28;45279;-67
2021/07/16 06:17:34;;;;;;;;;9.00;8.00;;;;;19.44;69.99;101861.16;5059535;28;46139;-68
2021/07/16 06:20:08;;;;;;;;;5.50;5.25;;;;;19.39;69.88;101868.38;5059903;28;45363;-68
2021/07/16 06:22:34;;;;;;;;;7.25;4.25;;;;;19.34;69.50;101880.06;5059605;28;45368;-68
2021/07/16 06:25:00;;;;;;;;;4.50;4.00;;;;;19.33;70.24;101881.88;5050471;28;45341;-68
2021/07/16 06:27:25;;;;;;;;;8.25;6.25;;;;;19.35;70.31;101874.72;5056153;28;45284;-69
2021/07/16 06:29:51;;;;;;;;;9.00;5.00;;;;;19.37;70.34;101888.69;5059453;28;45314;-69
2021/07/16 06:32:16;;;;;;;;;5.50;5.50;;;;;19.37;70.55;101877.28;5059593;28;45550;-69
2021/07/16 06:34:42;;;;;;;;;4.50;4.50;;;;;19.33;70.07;101892.41;5059496;28;45470;-68
2021/07/16 06:37:07;;;;;;;;;6.25;6.25;;;;;19.28;70.42;101883.84;5059175;28;46040;-70
2021/07/16 06:39:32;;;;;;;;;5.25;4.75;;;;;19.24;70.28;101892.84;5063073;28;45273;-69
2021/07/16 06:41:58;;;;;;;;;4.75;4.75;;;;;19.23;70.55;101893.75;5062861;28;45295;-71
2021/07/16 06:44:23;;;;;;;;;6.75;6.50;;;;;19.20;70.49;101887.75;5053476;28;45297;-69
2021/07/16 06:46:49;;;;;;;;;7.00;7.00;;;;;19.22;70.45;101891.16;5058986;28;46075;-68
2021/07/16 06:49:14;;;;;;;;;6.25;5.25;;;;;19.24;70.64;101894.63;5062868;28;45339;-70
2021/07/16 06:51:40;;;;;;;;;7.00;5.50;;;;;19.24;70.74;101894.63;5062574;28;45592;-76
2021/07/16 06:54:06;;;;;;;;;5.00;4.00;;;;;19.17;70.37;101906.34;5062989;28;45208;-72
2021/07/16 06:56:32;;;;;;;;;5.00;1.00;;;;;19.07;70.18;101893.59;5062298;28;45267;-70
2021/07/16 06:58:58;;;;;;;;;7.75;6.25;;;;;19.05;70.65;101897.22;5062648;28;45552;-70
2021/07/16 07:01:24;;;;;;;;;6.00;5.50;;;;;18.99;70.90;101905.38;5062166;28;45227;-73
2021/07/16 07:03:50;;;;;;;;;6.00;6.00;;;;;18.95;71.04;101893.25;5062846;28;45319;-65
2021/07/16 07:06:15;;;;;;;;;6.50;5.00;;;;;18.96;70.97;101918.69;5061977;28;45337;-69
2021/07/16 07:08:41;;;;;;;;;6.25;3.50;;;;;18.90;70.77;101901.38;5059154;28;45339;-70
2021/07/16 07:11:07;;;;;;;;;5.25;4.25;;;;;18.90;70.55;101904.00;5067395;28;45327;-71
2021/07/16 07:13:33;;;;;;;;;5.25;5.25;;;;;18.93;70.73;101919.69;5062389;28;45327;-71
2021/07/16 07:15:59;;;;;;;;;5.50;5.00;;;;;18.99;70.74;101910.63;5062297;28;46228;-77
2021/07/16 07:18:25;;;;;;;;;3.25;2.50;;;;;19.03;70.36;101913.09;5061743;28;45294;-69
2021/07/16 07:20:51;;;;;;;;;5.25;3.25;;;;;19.14;69.86;101908.19;5062277;28;45368;-70
2021/07/16 07:23:16;;;;;;;;;3.00;3.00;;;;;19.26;69.58;101911.22;5062064;28;45260;-69
2021/07/16 07:25:42;;;;;;;;;3.75;3.25;;;;;19.38;69.34;101905.38;5061790;28;46132;-71
2021/07/16 07:28:07;;;;;;;;;4.00;3.00;;;;;19.46;68.42;101924.34;5046604;28;45266;-70
2021/07/16 07:30:33;;;;;;;;;5.25;3.25;;;;;19.49;68.02;101910.16;5056950;28;45284;-70
2021/07/16 07:32:58;;;;;;;;;6.75;4.50;;;;;19.55;67.60;101907.28;5044026;28;45776;-68
2021/07/16 07:35:24;;;;;;;;;6.75;5.00;;;;;19.62;68.57;101908.69;5060229;28;46299;-69
2021/07/16 07:37:49;;;;;;;;;3.25;3.25;;;;;19.67;67.63;101910.19;5050108;28;45370;-65
2021/07/16 07:40:17;;;;;;;;;3.75;3.75;;;;;19.72;67.03;101907.34;5062104;28;45308;-66
2021/07/16 07:42:44;;;;;;;;;4.00;3.75;;;;;19.73;67.46;101896.72;5061688;28;45502;-65
2021/07/16 07:45:11;;;;;;;;;2.00;2.00;;;;;19.79;66.72;101897.34;5048140;28;45443;-65
2021/07/16 07:47:37;;;;;;;;;4.50;3.25;;;;;19.78;66.89;101900.91;5061910;28;45197;-65
2021/07/16 07:50:06;;;;;;;;;2.00;2.00;;;;;19.86;66.30;101904.91;5060766;28;45138;-66
2021/07/16 07:52:32;;;;;;;;;4.00;4.00;;;;;19.93;66.22;101914.22;5040151;28;45462;-65
2021/07/16 07:54:58;;;;;;;;;3.50;3.00;;;;;20.09;66.70;101927.56;5057494;28;46275;-65
2021/07/16 07:57:23;;;;;;;;;3.50;3.25;;;;;20.24;66.33;101913.63;5061598;28;45311;-65
2021/07/16 07:59:49;;;;;;;;;4.25;2.00;;;;;20.31;64.98;101920.28;5061386;28;45593;-65
2021/07/16 08:02:14;;;;;;;;;7.25;4.25;;;;;20.32;64.42;101927.28;5061414;28;45449;-65
2021/07/16 08:04:41;;;;;;;;;4.50;2.75;;;;;20.37;65.23;101919.13;5061372;28;46364;-65
2021/07/16 08:07:06;;;;;;;;;4.25;3.00;;;;;20.45;65.69;101926.72;5061322;28;45609;-65
2021/07/16 08:09:32;;;;;;;;;3.75;2.50;;;;;20.60;65.41;101928.56;5069550;28;45296;-65
2021/07/16 08:11:59;;;;;;;;;4.75;3.00;;;;;20.73;63.91;101936.75;5061219;28;45223;-64
2021/07/16 08:14:24;;;;;;;;;4.25;2.00;;;;;20.73;63.78;101936.75;5061433;28;45730;-66
2021/07/16 08:16:50;;;;;;;;;2.00;2.00;;;;;20.77;64.33;101936.50;5061558;28;45326;-65
2021/07/16 08:19:19;;;;;;;;;2.00;2.00;;;;;20.85;63.44;101939.63;5061491;28;45299;-65
2021/07/16 08:21:47;;;;;;;;;2.50;2.50;;;;;20.78;61.57;101945.28;5061355;28;45237;-64
2021/07/16 08:24:13;;;;;;;;;3.25;1.25;;;;;20.89;63.06;101954.38;5061251;28;46104;-64
2021/07/16 08:26:39;;;;;;;;;2.00;2.00;;;;;20.88;63.03;101957.09;5061093;28;45663;-64
2021/07/16 08:29:04;;;;;;;;;3.00;2.00;;;;;20.86;62.34;101951.91;5062458;28;45518;-64
2021/07/16 08:31:30;;;;;;;;;4.00;3.00;;;;;20.83;63.12;101952.06;5061351;28;45407;-65
2021/07/16 08:33:55;;;;;;;;;4.25;2.00;;;;;20.79;63.05;101953.13;5061143;28;45289;-65
2021/07/16 08:36:20;;;;;;;;;2.25;1.50;;;;;20.77;62.64;101954.13;5060869;28;45327;-65
2021/07/16 08:38:46;;;;;;;;;1.75;0.00;;;;;20.77;62.88;101952.34;5060931;28;45440;-66
2021/07/16 08:41:12;;;;;;;;;4.50;2.50;;;;;20.83;62.25;101959.97;5060882;28;45431;-66
2021/07/16 08:43:40;;;;;;;;;1.75;1.75;;;;;20.89;61.16;101957.00;5060655;28;45353;-64
2021/07/16 08:46:08;;;;;;;;;2.75;2.75;;;;;20.88;61.41;101960.59;5060744;28;45531;-65
2021/07/16 08:48:34;;;;;;;;;3.75;2.25;;;;;20.77;61.28;101968.19;5060801;28;45311;-65
2021/07/16 08:51:03;;;;;;;;;2.00;2.00;;;;;20.56;61.70;102000.97;5060633;28;45513;-65
2021/07/16 08:53:29;;;;;;;;;2.50;2.00;;;;;20.21;63.31;101971.81;5060543;28;45335;-63
2021/07/16 08:55:55;;;;;;;;;5.50;3.75;;;;;19.93;64.40;101974.06;5060653;28;45609;-66
2021/07/16 08:58:21;;;;;;;;;6.75;5.00;;;;;19.78;64.67;101980.91;5056174;28;45281;-68
2021/07/16 09:00:47;;;;;;;;;4.75;4.50;;;;;19.57;64.97;101972.19;5052043;28;45407;-70
2021/07/16 09:03:12;;;;;;;;;7.75;5.00;;;;;19.43;65.79;101978.06;5060070;28;46121;-64
2021/07/16 09:05:40;;;;;;;;;11.00;7.50;;;;;19.33;66.30;101978.53;5060663;28;45262;-63
2021/07/16 09:08:14;;;;;;;;;4.75;4.75;;;;;19.24;66.93;101990.34;5060616;28;45273;-67
2021/07/16 09:10:45;;;;;;;;;6.75;5.50;;;;;19.21;66.71;101990.47;5068184;28;45478;-67
2021/07/16 09:13:12;;;;;;;;;8.25;6.00;;;;;19.20;67.01;101993.16;5060231;28;47046;-67
2021/07/16 09:15:39;;;;;;;;;6.00;4.75;;;;;19.20;67.27;101994.03;5060572;28;45580;-65
2021/07/16 09:18:22;;;;;;;;;7.00;6.00;;;;;19.25;67.04;101992.06;5039002;28;45438;-63
2021/07/16 09:21:03;;;;;;;;;5.50;5.50;;;;;19.26;66.85;101987.66;5054702;28;45405;-66
2021/07/16 09:23:40;;;;;;;;;10.00;5.25;;;;;19.34;67.35;101996.91;5059947;28;45375;-67
2021/07/16 09:26:12;;;;;;;;;7.75;4.75;;;;;19.45;67.06;101991.19;5059816;28;45162;-64
2021/07/16 09:28:43;;;;;;;;;10.50;8.25;;;;;19.64;66.35;101985.97;5059699;28;45335;-65
2021/07/16 09:31:23;;;;;;;;;12.00;7.75;;;;;19.84;66.46;101990.34;5059644;28;45406;-64
2021/07/16 09:33:52;;;;;;;;;10.75;7.25;;;;;19.95;64.87;101985.41;5059394;28;46329;-66
2021/07/16 09:36:23;;;;;;;;;13.00;7.00;;;;;20.06;64.42;101983.13;5057356;28;45260;-62
2021/07/16 09:38:51;;;;;;;;;5.25;5.00;;;;;20.10;63.64;101992.59;5059534;28;45260;-64
2021/07/16 09:41:16;;;;;;;;;10.25;5.00;;;;;20.14;62.64;101994.16;5059737;28;45355;-66
2021/07/16 09:43:42;;;;;;;;;6.25;5.00;;;;;20.20;62.87;101979.81;5059207;28;46192;-64
2021/07/16 09:46:07;;;;;;;;;4.00;4.00;;;;;20.26;62.18;101985.66;5059857;28;45403;-68
2021/07/16 09:48:35;;;;;;;;;8.00;6.00;;;;;20.41;62.95;101986.72;5059338;28;45253;-69
2021/07/16 09:51:14;;;;;;;;;6.75;3.00;;;;;20.63;63.02;101986.56;5059655;28;45486;-67
2021/07/16 09:53:54;;;;;;;;;6.50;5.25;;;;;20.90;61.14;101986.94;5058938;28;45237;-67
2021/07/16 09:56:20;;;;;;;;;9.25;5.50;;;;;21.00;61.96;101996.09;5058912;28;45410;-69
2021/07/16 09:58:47;;;;;;;;;5.50;5.50;;;;;21.04;61.38;101999.47;5051682;28;45305;-70
2021/07/16 10:01:13;;;;;;;;;4.75;4.00;;;;;20.91;59.36;101992.16;5053986;28;45425;-71
2021/07/16 10:03:40;;;;;;;;;6.50;5.00;;;;;20.78;59.67;101991.03;5043458;28;45328;-70
2021/07/16 10:06:07;;;;;;;;;4.25;4.00;;;;;20.70;60.75;101987.09;5058164;28;45173;-68
2021/07/16 10:08:35;;;;;;;;;5.00;5.00;;;;;20.59;60.01;101987.59;5058970;28;45302;-69
2021/07/16 10:11:03;;;;;;;;;5.25;5.00;;;;;20.54;60.24;101997.56;5058747;28;45332;-66
2021/07/16 10:13:31;;;;;;;;;7.00;6.00;;;;;20.49;59.39;102005.72;5058230;28;45469;-66
2021/07/16 10:15:57;;;;;;;;;8.00;6.00;;;;;20.48;60.65;102006.63;5058738;28;45170;-71
2021/07/16 10:18:25;;;;;;;;;4.00;3.00;;;;;20.48;60.85;102004.00;5043973;28;45766;-65
2021/07/16 10:20:50;;;;;;;;;9.00;6.25;;;;;20.51;59.83;102016.19;5022508;28;45707;-65
2021/07/16 10:23:16;;;;;;;;;4.25;4.25;;;;;20.49;60.08;102003.06;5058548;28;45326;-64
2021/07/16 10:25:44;;;;;;;;;5.25;5.25;;;;;20.50;59.17;102014.47;5057878;28;45308;-65
2021/07/16 10:28:47;;;;;;;;;7.75;6.00;;;;;20.48;60.32;102005.78;5040201;28;45273;-64
2021/07/16 10:31:32;;;;;;;;;8.25;6.75;;;;;20.41;59.77;102017.56;5058106;28;45265;-66
2021/07/16 10:34:19;;;;;;;;;10.75;7.75;;;;;20.30;59.99;102029.47;5057429;28;45406;-65
2021/07/16 10:36:49;;;;;;;;;8.00;8.00;;;;;20.26;60.11;102019.13;5055076;28;45307;-66
2021/07/16 10:39:22;;;;;;;;;11.25;8.25;;;;;20.21;60.59;102021.13;5025451;28;45334;-68
2021/07/16 10:41:48;;;;;;;;;11.00;10.75;;;;;20.14;59.50;102038.19;5053169;28;45333;-64
2021/07/16 10:44:15;;;;;;;;;12.75;10.00;;;;;20.02;59.88;102031.66;5058834;28;46332;-67
2021/07/16 10:46:45;;;;;;;;;8.25;7.00;;;;;19.99;60.08;102029.19;5058390;28;45308;-67
2021/07/16 10:49:12;;;;;;;;;16.75;10.25;;;;;20.08;60.34;102023.50;5058102;27;45177;-62
2021/07/16 10:51:40;;;;;;;;;13.00;9.75;;;;;20.21;58.81;102039.59;5040031;28;45304;-60
2021/07/16 10:54:10;;;;;;;;;12.75;9.00;;;;;20.33;59.84;102037.25;5057144;28;47072;-63
2021/07/16 10:56:39;;;;;;;;;12.00;8.50;;;;;20.40;58.75;102031.66;5057881;28;45604;-62
2021/07/16 10:59:06;;;;;;;;;9.50;8.25;;;;;20.46;58.10;102040.19;5045192;28;45498;-62
2021/07/16 11:01:37;;;;;;;;;9.50;6.50;;;;;20.47;57.89;102038.41;5052645;28;45475;-66
2021/07/16 11:04:05;;;;;;;;;10.25;8.25;;;;;20.44;58.93;102044.69;5048017;28;45223;-66
2021/07/16 11:06:49;;;;;;;;;10.00;10.00;;;;;20.46;58.48;102048.13;5057478;28;46115;-66
2021/07/16 11:09:40;;;;;;;;;8.00;6.75;;;;;20.47;58.60;102044.53;5058464;28;45318;-70
2021/07/16 11:12:20;;;;;;;;;15.25;11.50;;;;;20.51;57.15;102046.09;5036808;28;45228;-66
2021/07/16 11:14:45;;;;;;;;;16.50;13.50;;;;;20.55;58.33;102042.38;5057987;28;45435;-65
2021/07/16 11:17:50;;;;;;;;;14.75;11.50;;;;;20.68;58.39;102055.00;5058564;28;45292;-68
2021/07/16 11:20:19;;;;;;;;;9.00;9.00;;;;;20.74;57.22;102054.69;5045091;28;45526;-63